Time;durP1;ratioP1;P1;durP2;ratioP2;P2;SDS_P1;SDS_P2;PMS_P1;PMS_P2;Temp;Humidity;BMP_temperature;BMP_pressure;BME280_temperature;BME280_humidity;BME280_pressure;Samples;Min_cycle;Max_cycle;Signal;HPM_P1;HPM_P2
2021/05/20 00:01:14;;;;;;;;;;;27.00;92.90;;;;;;5126728;28;19904;-51
2021/05/20 00:03:42;;;;;;;;;;;27.00;92.90;;;;;;5107770;28;19919;-47
2021/05/20 00:06:08;;;;;;;;;;;27.00;92.90;;;;;;5126377;28;20021;-47
2021/05/20 00:08:35;;;;;;;;;;;26.90;92.90;;;;;;5108362;28;19912;-50
2021/05/20 00:11:01;;;;;;;;;;;26.90;92.90;;;;;;5125903;28;19983;-51
2021/05/20 00:13:27;;;;;;;;;;;27.00;93.00;;;;;;5125903;28;19911;-50
2021/05/20 00:15:53;;;;;;;;;;;27.00;93.10;;;;;;5126404;28;19927;-50
2021/05/20 00:18:19;;;;;;;;;;;27.00;93.10;;;;;;5125964;28;19912;-54
2021/05/20 00:20:49;;;;;;;;;;;27.00;93.20;;;;;;5125899;28;19903;-51
2021/05/20 00:23:15;;;;;;;;;;;26.90;93.20;;;;;;5126040;28;19911;-52
2021/05/20 00:25:43;;;;;;;;;;;26.90;93.20;;;;;;5107857;28;19904;-54
2021/05/20 00:28:09;;;;;;;;;;;26.90;93.30;;;;;;5107546;28;19975;-50
2021/05/20 00:30:35;;;;;;;;;;;26.90;93.30;;;;;;5107485;28;19916;-50
2021/05/20 00:33:01;;;;;;;;;;;27.00;93.30;;;;;;5107759;28;19912;-46
2021/05/20 00:35:28;;;;;;;;;;;26.90;93.30;;;;;;5125851;28;19903;-53
2021/05/20 00:37:54;;;;;;;;;;;26.90;93.30;;;;;;5125091;28;19904;-49
2021/05/20 00:40:20;;;;;;;;;;;27.00;93.40;;;;;;5125795;28;19903;-52
2021/05/20 00:42:47;;;;;;;;;;;27.00;93.30;;;;;;5107436;28;19912;-53
2021/05/20 00:45:14;;;;;;;;;;;26.90;93.20;;;;;;5107799;28;19953;-51
2021/05/20 00:47:41;;;;;;;;;;;26.90;93.20;;;;;;5107253;28;19911;-47
2021/05/20 00:50:09;;;;;;;;;;;26.90;93.20;;;;;;5107164;28;20248;-54
2021/05/20 00:52:36;;;;;;;;;;;26.90;93.30;;;;;;5125427;28;19911;-55
2021/05/20 00:55:04;;;;;;;;;;;27.00;93.30;;;;;;5107438;28;19915;-51
2021/05/20 00:57:30;;;;;;;;;;;26.90;93.20;;;;;;5107371;28;19908;-50
2021/05/20 01:00:07;;;;;;;;;;;26.90;93.30;;;;;;5125399;28;19912;-54
2021/05/20 01:02:35;;;;;;;;;;;27.00;93.20;;;;;;5107077;28;19939;-52
2021/05/20 01:05:02;;;;;;;;;;;27.00;93.10;;;;;;5106891;28;19912;-52
2021/05/20 01:07:28;;;;;;;;;;;26.90;93.10;;;;;;5107795;28;19935;-49
2021/05/20 01:09:54;;;;;;;;;;;26.90;93.20;;;;;;5125239;28;19922;-50
2021/05/20 01:12:21;;;;;;;;;;;26.90;93.20;;;;;;5106877;28;19942;-52
2021/05/20 01:14:47;;;;;;;;;;;26.90;93.20;;;;;;5125395;28;19954;-48
2021/05/20 01:17:13;;;;;;;;;;;26.90;93.20;;;;;;5124796;28;20210;-46
2021/05/20 01:19:43;;;;;;;;;;;26.90;93.10;;;;;;5107174;28;19927;-47
2021/05/20 01:22:09;;;;;;;;;;;26.90;93.10;;;;;;5124884;28;19904;-50
2021/05/20 01:24:36;;;;;;;;;;;26.90;93.10;;;;;;5125155;28;19911;-54
2021/05/20 01:27:03;;;;;;;;;;;26.90;93.10;;;;;;5124850;28;19904;-48
2021/05/20 01:29:29;;;;;;;;;;;26.80;93.10;;;;;;5124486;28;19919;-53
2021/05/20 01:31:55;;;;;;;;;;;26.90;93.10;;;;;;5124690;28;19904;-57
2021/05/20 01:34:22;;;;;;;;;;;26.80;93.10;;;;;;5124244;28;19969;-57
2021/05/20 01:36:48;;;;;;;;;;;26.80;93.20;;;;;;5103960;28;19908;-55
2021/05/20 01:39:14;;;;;;;;;;;26.80;93.20;;;;;;5104757;28;19909;-56
2021/05/20 01:41:40;;;;;;;;;;;26.80;93.10;;;;;;5104010;28;19950;-53
2021/05/20 01:44:07;;;;;;;;;;;26.80;93.10;;;;;;5104199;28;19916;-52
2021/05/20 01:46:33;;;;;;;;;;;26.80;93.00;;;;;;5085275;28;19923;-50
2021/05/20 01:48:59;;;;;;;;;;;26.80;93.00;;;;;;5103089;28;19912;-54
2021/05/20 01:51:27;;;;;;;;;;;26.90;93.00;;;;;;5103716;28;19908;-46
2021/05/20 01:53:56;;;;;;;;;;;26.90;93.00;;;;;;5086365;28;20294;-47
2021/05/20 01:56:24;;;;;;;;;;;26.90;93.00;;;;;;5103814;28;19996;-51
2021/05/20 01:58:51;;;;;;;;;;;26.90;92.90;;;;;;5104828;28;19912;-55
2021/05/20 02:01:20;;;;;;;;;;;26.90;92.90;;;;;;5086279;28;19904;-50
2021/05/20 02:03:47;;;;;;;;;;;26.90;93.00;;;;;;5085494;28;19947;-47
2021/05/20 02:06:13;;;;;;;;;;;26.90;93.00;;;;;;5104372;28;20101;-50
2021/05/20 02:08:39;;;;;;;;;;;26.90;92.90;;;;;;5104353;28;20193;-49
2021/05/20 02:11:06;;;;;;;;;;;26.90;92.80;;;;;;5104154;28;20192;-49
2021/05/20 02:13:33;;;;;;;;;;;26.90;93.00;;;;;;5085835;28;19975;-55
2021/05/20 02:15:59;;;;;;;;;;;26.90;93.00;;;;;;5104657;28;19911;-47
2021/05/20 02:18:25;;;;;;;;;;;26.80;93.00;;;;;;5107546;28;19919;-49
2021/05/20 02:20:52;;;;;;;;;;;26.80;93.00;;;;;;5107830;28;20104;-47
2021/05/20 02:23:18;;;;;;;;;;;26.80;93.00;;;;;;5107339;28;19912;-45
2021/05/20 02:25:47;;;;;;;;;;;26.80;93.00;;;;;;5107530;28;19904;-50
2021/05/20 02:28:14;;;;;;;;;;;26.80;93.00;;;;;;5107964;28;19916;-43
2021/05/20 02:30:42;;;;;;;;;;;26.80;92.90;;;;;;5107348;28;19932;-48
2021/05/20 02:33:09;;;;;;;;;;;26.80;92.90;;;;;;5107034;28;20089;-52
2021/05/20 02:35:35;;;;;;;;;;;26.80;92.90;;;;;;5107191;28;19908;-49
2021/05/20 02:38:03;;;;;;;;;;;26.70;92.90;;;;;;5107497;28;19917;-47
2021/05/20 02:40:29;;;;;;;;;;;26.70;92.80;;;;;;5107401;28;19908;-49
2021/05/20 02:42:55;;;;;;;;;;;26.70;92.80;;;;;;5107252;28;19904;-49
2021/05/20 02:45:25;;;;;;;;;;;26.70;92.70;;;;;;5107519;28;19908;-50
2021/05/20 02:47:52;;;;;;;;;;;26.70;92.80;;;;;;5107135;28;19967;-47
2021/05/20 02:50:19;;;;;;;;;;;26.70;92.90;;;;;;5107486;28;19916;-48
2021/05/20 02:52:46;;;;;;;;;;;26.70;93.00;;;;;;5107140;28;19904;-47
2021/05/20 02:55:13;;;;;;;;;;;26.70;93.00;;;;;;5107098;28;19908;-50
2021/05/20 02:57:42;;;;;;;;;;;26.60;93.00;;;;;;5088994;28;19939;-51
2021/05/20 03:00:10;;;;;;;;;;;26.60;93.00;;;;;;5107018;28;20203;-52
2021/05/20 03:02:36;;;;;;;;;;;26.60;93.00;;;;;;5106599;28;19911;-48
2021/05/20 03:05:03;;;;;;;;;;;26.60;93.00;;;;;;5107064;28;19908;-49
2021/05/20 03:07:29;;;;;;;;;;;26.60;92.90;;;;;;5106750;28;19983;-49
2021/05/20 03:09:56;;;;;;;;;;;26.60;93.00;;;;;;5107245;28;20070;-51
2021/05/20 03:12:23;;;;;;;;;;;26.60;93.00;;;;;;5106923;28;20139;-49
2021/05/20 03:14:49;;;;;;;;;;;26.60;92.90;;;;;;5107465;28;19908;-52
2021/05/20 03:17:15;;;;;;;;;;;26.60;92.90;;;;;;5106160;28;20135;-47
2021/05/20 03:19:42;;;;;;;;;;;26.60;92.80;;;;;;5089014;28;19930;-46
2021/05/20 03:22:08;;;;;;;;;;;26.60;92.80;;;;;;5106565;28;19908;-47
2021/05/20 03:24:35;;;;;;;;;;;26.60;92.80;;;;;;5106817;28;19909;-48
2021/05/20 03:27:01;;;;;;;;;;;26.60;92.90;;;;;;5106538;28;19962;-53
2021/05/20 03:29:27;;;;;;;;;;;26.60;93.00;;;;;;5106463;28;20246;-47
2021/05/20 03:31:54;;;;;;;;;;;26.60;92.80;;;;;;5105973;28;20131;-55
2021/05/20 03:34:20;;;;;;;;;;;26.60;92.80;;;;;;5106296;28;19931;-46
2021/05/20 03:36:46;;;;;;;;;;;26.60;92.80;;;;;;5106241;28;19969;-52
2021/05/20 03:39:12;;;;;;;;;;;26.60;92.80;;;;;;5106676;28;19912;-50
2021/05/20 03:41:39;;;;;;;;;;;26.60;92.90;;;;;;5105974;28;19976;-47
2021/05/20 03:44:05;;;;;;;;;;;26.50;92.90;;;;;;5106113;28;20085;-47
2021/05/20 03:46:31;;;;;;;;;;;26.50;92.90;;;;;;5106247;28;19907;-45
2021/05/20 03:48:57;;;;;;;;;;;26.50;92.90;;;;;;5088168;28;19916;-52
2021/05/20 03:51:24;;;;;;;;;;;26.50;92.90;;;;;;5106042;28;20131;-48
2021/05/20 03:53:50;;;;;;;;;;;26.50;92.90;;;;;;5106074;28;20108;-47
2021/05/20 03:56:16;;;;;;;;;;;26.50;93.00;;;;;;5105737;28;19904;-49
2021/05/20 03:58:42;;;;;;;;;;;26.50;93.10;;;;;;5105987;28;19979;-48
2021/05/20 04:01:09;;;;;;;;;;;26.50;93.20;;;;;;5105593;28;19904;-47
2021/05/20 04:03:35;;;;;;;;;;;26.50;93.30;;;;;;5105676;28;19927;-50
2021/05/20 04:06:05;;;;;;;;;;;26.40;93.40;;;;;;5105663;28;20160;-51
2021/05/20 04:08:34;;;;;;;;;;;26.40;93.40;;;;;;5106004;28;19912;-48
2021/05/20 04:11:01;;;;;;;;;;;26.40;93.50;;;;;;5087329;28;19965;-47
2021/05/20 04:13:40;;;;;;;;;;;26.40;93.50;;;;;;5105631;28;19983;-54
2021/05/20 04:16:07;;;;;;;;;;;26.40;93.50;;;;;;5105690;28;19904;-51
2021/05/20 04:18:34;;;;;;;;;;;26.50;93.50;;;;;;5105812;28;19919;-55
2021/05/20 04:21:01;;;;;;;;;;;26.50;93.50;;;;;;5105610;28;19904;-47
2021/05/20 04:23:28;;;;;;;;;;;26.50;93.60;;;;;;5105616;28;19934;-49
2021/05/20 04:25:54;;;;;;;;;;;26.40;93.60;;;;;;5105334;28;19939;-50
2021/05/20 04:28:21;;;;;;;;;;;26.40;93.60;;;;;;5105592;28;19912;-56
2021/05/20 04:30:48;;;;;;;;;;;26.40;93.60;;;;;;5105196;28;19974;-48
2021/05/20 04:33:17;;;;;;;;;;;26.40;93.60;;;;;;5105290;28;19912;-53
2021/05/20 04:35:44;;;;;;;;;;;26.40;93.60;;;;;;5105490;28;19935;-50
2021/05/20 04:38:10;;;;;;;;;;;26.40;93.60;;;;;;5105330;28;19946;-50
2021/05/20 04:40:38;;;;;;;;;;;26.40;93.80;;;;;;5104568;28;19911;-53
2021/05/20 04:43:04;;;;;;;;;;;26.40;93.60;;;;;;5105243;28;19984;-48
2021/05/20 04:45:31;;;;;;;;;;;26.40;93.60;;;;;;5105047;28;19911;-47
2021/05/20 04:47:57;;;;;;;;;;;26.40;93.70;;;;;;5104881;28;19935;-47
2021/05/20 04:50:23;;;;;;;;;;;26.40;93.70;;;;;;5104935;28;19908;-48
2021/05/20 04:52:49;;;;;;;;;;;26.30;93.70;;;;;;5105004;28;20100;-47
2021/05/20 04:55:16;;;;;;;;;;;26.40;93.60;;;;;;5104581;28;19941;-48
2021/05/20 04:57:45;;;;;;;;;;;26.40;93.70;;;;;;5105075;28;19904;-50
2021/05/20 05:00:12;;;;;;;;;;;26.40;93.70;;;;;;5104857;28;19904;-52
2021/05/20 05:02:39;;;;;;;;;;;26.40;93.60;;;;;;5104512;28;19904;-47
2021/05/20 05:05:06;;;;;;;;;;;26.40;93.50;;;;;;5104813;28;20180;-49
2021/05/20 05:07:32;;;;;;;;;;;26.40;93.50;;;;;;5104817;28;19910;-54
2021/05/20 05:09:59;;;;;;;;;;;26.40;93.30;;;;;;5105107;28;19951;-47
2021/05/20 05:12:26;;;;;;;;;;;26.40;93.20;;;;;;5104594;28;19904;-47
2021/05/20 05:14:52;;;;;;;;;;;26.40;93.10;;;;;;5105123;28;19919;-50
2021/05/20 05:17:19;;;;;;;;;;;26.40;93.00;;;;;;5104376;28;19927;-49
2021/05/20 05:19:45;;;;;;;;;;;26.40;92.90;;;;;;5105040;28;19919;-50
2021/05/20 05:22:11;;;;;;;;;;;26.40;92.90;;;;;;5104601;28;19942;-56
2021/05/20 05:24:37;;;;;;;;;;;26.40;92.90;;;;;;5104711;28;19940;-56
2021/05/20 05:27:04;;;;;;;;;;;26.30;92.80;;;;;;5104650;28;19904;-54
2021/05/20 05:29:33;;;;;;;;;;;26.30;92.80;;;;;;5104582;28;20200;-51
2021/05/20 05:31:59;;;;;;;;;;;26.30;92.70;;;;;;5086383;28;19908;-51
2021/05/20 05:34:25;;;;;;;;;;;26.30;92.60;;;;;;5086665;28;19908;-51
2021/05/20 05:36:52;;;;;;;;;;;26.40;92.60;;;;;;5104449;28;19908;-50
2021/05/20 05:39:18;;;;;;;;;;;26.30;92.60;;;;;;5104532;28;19908;-52
2021/05/20 05:41:45;;;;;;;;;;;26.30;92.60;;;;;;5104412;28;19908;-48
2021/05/20 05:44:14;;;;;;;;;;;26.30;92.60;;;;;;5104258;28;19908;-46
2021/05/20 05:46:40;;;;;;;;;;;26.30;92.50;;;;;;5104128;28;19950;-47
2021/05/20 05:49:19;;;;;;;;;;;26.30;92.60;;;;;;5086381;28;20197;-47
2021/05/20 05:51:57;;;;;;;;;;;26.30;92.70;;;;;;5106170;28;19908;-48
2021/05/20 05:54:24;;;;;;;;;;;26.30;92.80;;;;;;5108701;28;19908;-55
2021/05/20 05:56:51;;;;;;;;;;;26.30;92.90;;;;;;5108625;28;20211;-51
2021/05/20 05:59:20;;;;;;;;;;;26.30;93.00;;;;;;5108544;28;19908;-50
2021/05/20 06:01:46;;;;;;;;;;;26.20;93.00;;;;;;5108180;28;19975;-46
2021/05/20 06:04:14;;;;;;;;;;;26.30;93.10;;;;;;5108664;28;19942;-52
2021/05/20 06:06:44;;;;;;;;;;;26.20;93.20;;;;;;5108067;28;19942;-51
2021/05/20 06:09:10;;;;;;;;;;;26.20;93.30;;;;;;5108470;28;19915;-46
2021/05/20 06:11:39;;;;;;;;;;;26.20;93.30;;;;;;5108122;28;20224;-47
2021/05/20 06:14:07;;;;;;;;;;;26.20;93.40;;;;;;5108215;28;20088;-53
2021/05/20 06:16:39;;;;;;;;;;;26.20;93.50;;;;;;5108173;28;19915;-52
2021/05/20 06:19:06;;;;;;;;;;;26.20;93.50;;;;;;5108192;28;20199;-47
2021/05/20 06:21:32;;;;;;;;;;;26.20;93.50;;;;;;5107759;28;19946;-47
2021/05/20 06:23:58;;;;;;;;;;;26.20;93.50;;;;;;5108080;28;20206;-52
2021/05/20 06:26:25;;;;;;;;;;;26.20;93.50;;;;;;5107745;28;19965;-49
2021/05/20 06:28:51;;;;;;;;;;;26.20;93.50;;;;;;5107695;28;20123;-50
2021/05/20 06:31:17;;;;;;;;;;;26.20;93.50;;;;;;5107340;28;19915;-49
2021/05/20 06:33:43;;;;;;;;;;;26.20;93.50;;;;;;5107706;28;19912;-50
2021/05/20 06:36:10;;;;;;;;;;;26.20;93.60;;;;;;5107406;28;19947;-49
2021/05/20 06:38:36;;;;;;;;;;;26.20;93.60;;;;;;5107589;28;20157;-50
2021/05/20 06:41:06;;;;;;;;;;;26.20;93.60;;;;;;5107421;28;19973;-46
2021/05/20 06:43:37;;;;;;;;;;;26.20;93.60;;;;;;5107300;28;19986;-50
2021/05/20 06:46:06;;;;;;;;;;;26.20;93.60;;;;;;5107373;28;19910;-47
2021/05/20 06:48:33;;;;;;;;;;;26.20;93.60;;;;;;5107373;28;20009;-47
2021/05/20 06:50:59;;;;;;;;;;;26.20;93.60;;;;;;5107059;28;19908;-46
2021/05/20 06:53:29;;;;;;;;;;;26.20;93.60;;;;;;5107341;28;19954;-46
2021/05/20 06:55:58;;;;;;;;;;;26.20;93.70;;;;;;5107114;28;19919;-48
2021/05/20 07:01:09;;;;;;;;;;;26.20;93.70;;;;;;5107148;28;19941;-55
2021/05/20 07:03:35;;;;;;;;;;;26.20;93.70;;;;;;5106619;28;19915;-47
2021/05/20 07:06:01;;;;;;;;;;;26.10;93.80;;;;;;5107129;28;19904;-48
2021/05/20 07:08:27;;;;;;;;;;;26.20;93.80;;;;;;5107086;28;20124;-54
2021/05/20 07:10:54;;;;;;;;;;;26.10;93.80;;;;;;5106685;28;19950;-53
2021/05/20 07:13:21;;;;;;;;;;;26.10;93.70;;;;;;5106794;28;19949;-48
2021/05/20 07:15:48;;;;;;;;;;;26.10;93.70;;;;;;5106723;28;19904;-52
2021/05/20 07:18:14;;;;;;;;;;;26.10;93.70;;;;;;5106645;28;19916;-50
2021/05/20 07:20:40;;;;;;;;;;;26.10;93.70;;;;;;5106765;28;19975;-47
2021/05/20 07:23:10;;;;;;;;;;;26.10;93.70;;;;;;5106803;28;20235;-54
2021/05/20 07:25:37;;;;;;;;;;;26.10;93.60;;;;;;5106487;28;19927;-48
2021/05/20 07:28:03;;;;;;;;;;;26.20;93.60;;;;;;5106384;28;19912;-47
2021/05/20 07:30:30;;;;;;;;;;;26.10;93.50;;;;;;5106383;28;20108;-48
2021/05/20 07:32:56;;;;;;;;;;;26.10;93.50;;;;;;5106379;28;20109;-51
2021/05/20 07:35:23;;;;;;;;;;;26.20;93.50;;;;;;5106325;28;19912;-51
2021/05/20 07:37:49;;;;;;;;;;;26.10;93.40;;;;;;5106385;28;19967;-48
2021/05/20 07:40:15;;;;;;;;;;;26.10;93.30;;;;;;5106262;28;19908;-46
2021/05/20 07:42:42;;;;;;;;;;;26.10;93.40;;;;;;5106140;28;19904;-48
2021/05/20 07:45:10;;;;;;;;;;;26.10;93.30;;;;;;5106159;28;19971;-50
2021/05/20 07:47:37;;;;;;;;;;;26.10;93.30;;;;;;5106116;28;20082;-46
2021/05/20 07:50:04;;;;;;;;;;;26.10;93.30;;;;;;5106177;28;19916;-48
2021/05/20 07:52:30;;;;;;;;;;;26.10;93.30;;;;;;5106100;28;19972;-48
2021/05/20 07:54:57;;;;;;;;;;;26.10;93.30;;;;;;5106554;28;19948;-49
2021/05/20 07:57:24;;;;;;;;;;;26.10;93.30;;;;;;5105768;28;19908;-47
2021/05/20 07:59:52;;;;;;;;;;;26.10;93.20;;;;;;5106469;28;19912;-47
2021/05/20 08:04:54;;;;;;;;;;;26.10;93.10;;;;;;5106349;28;20218;-50
2021/05/20 08:12:29;;;;;;;;;;;26.00;93.10;;;;;;5105807;28;20081;-49
2021/05/20 08:14:55;;;;;;;;;;;26.00;93.10;;;;;;5104674;28;19919;-49
2021/05/20 08:17:21;;;;;;;;;;;26.10;93.20;;;;;;5105536;28;19926;-49
2021/05/20 08:19:47;;;;;;;;;;;26.10;93.20;;;;;;5106021;28;20148;-51
2021/05/20 08:22:14;;;;;;;;;;;26.00;93.20;;;;;;5105592;28;19936;-46
2021/05/20 08:24:40;;;;;;;;;;;26.00;93.30;;;;;;5105813;28;19934;-47
2021/05/20 08:27:11;;;;;;;;;;;26.00;93.40;;;;;;5105471;28;19911;-47
2021/05/20 08:29:37;;;;;;;;;;;26.00;93.40;;;;;;5105354;28;19982;-52
2021/05/20 08:32:04;;;;;;;;;;;26.00;93.40;;;;;;5105183;28;19911;-47
2021/05/20 08:34:30;;;;;;;;;;;26.00;93.40;;;;;;5105782;28;20189;-47
2021/05/20 08:36:56;;;;;;;;;;;26.00;93.40;;;;;;5105126;28;19908;-46
2021/05/20 08:39:22;;;;;;;;;;;26.00;93.50;;;;;;5105330;28;19912;-50
2021/05/20 08:41:53;;;;;;;;;;;26.00;93.60;;;;;;5105049;28;19934;-50
2021/05/20 08:44:19;;;;;;;;;;;25.90;93.60;;;;;;5105378;28;20092;-45
2021/05/20 08:46:45;;;;;;;;;;;25.90;93.60;;;;;;5105122;28;19935;-48
2021/05/20 08:49:17;;;;;;;;;;;25.90;93.70;;;;;;5104924;28;19919;-46
2021/05/20 08:51:49;;;;;;;;;;;25.90;93.70;;;;;;5105106;28;20115;-51
2021/05/20 08:54:16;;;;;;;;;;;25.90;93.70;;;;;;5105155;28;20184;-53
2021/05/20 08:56:46;;;;;;;;;;;25.90;93.70;;;;;;5104954;28;20005;-49
2021/05/20 08:59:13;;;;;;;;;;;25.90;93.70;;;;;;5104715;28;19912;-46
2021/05/20 09:01:40;;;;;;;;;;;25.90;93.70;;;;;;5104679;28;19908;-47
2021/05/20 09:04:07;;;;;;;;;;;25.90;93.70;;;;;;5105114;28;20230;-49
2021/05/20 09:06:37;;;;;;;;;;;25.90;93.70;;;;;;5104646;28;19904;-48
2021/05/20 09:09:06;;;;;;;;;;;25.90;93.70;;;;;;5104834;28;20200;-54
2021/05/20 09:11:32;;;;;;;;;;;25.80;93.60;;;;;;5104480;28;19946;-46
2021/05/20 09:14:03;;;;;;;;;;;25.80;93.70;;;;;;5104816;28;19912;-53
2021/05/20 09:16:29;;;;;;;;;;;25.90;93.70;;;;;;5104516;28;19904;-50
2021/05/20 09:18:59;;;;;;;;;;;25.80;93.70;;;;;;5104695;28;20211;-49
2021/05/20 09:21:25;;;;;;;;;;;25.90;93.70;;;;;;5104286;28;19905;-49
2021/05/20 09:23:52;;;;;;;;;;;25.80;93.70;;;;;;5104674;28;19953;-48
2021/05/20 09:26:18;;;;;;;;;;;25.80;93.90;;;;;;5104196;28;19911;-47
2021/05/20 09:28:47;;;;;;;;;;;25.80;93.70;;;;;;5104504;28;19912;-46
2021/05/20 09:31:15;;;;;;;;;;;25.80;93.70;;;;;;5104108;28;19916;-49
2021/05/20 09:33:51;;;;;;;;;;;25.90;93.70;;;;;;5104610;28;19912;-48
2021/05/20 09:36:21;;;;;;;;;;;25.80;93.70;;;;;;5104150;28;19919;-47
2021/05/20 09:38:47;;;;;;;;;;;25.80;93.70;;;;;;5104643;28;19912;-45
2021/05/20 09:41:17;;;;;;;;;;;25.80;93.70;;;;;;5104296;28;19979;-46
2021/05/20 09:43:44;;;;;;;;;;;25.80;93.70;;;;;;5104345;28;19912;-46
2021/05/20 09:46:11;;;;;;;;;;;25.80;93.70;;;;;;5104255;28;19932;-46
2021/05/20 09:48:38;;;;;;;;;;;25.80;93.70;;;;;;5086256;28;19913;-53
2021/05/20 09:51:05;;;;;;;;;;;25.80;93.70;;;;;;5103989;28;20197;-46
2021/05/20 09:53:31;;;;;;;;;;;25.80;93.80;;;;;;5104398;28;19912;-46
2021/05/20 09:55:58;;;;;;;;;;;25.80;93.80;;;;;;5104240;28;19904;-46
2021/05/20 09:58:28;;;;;;;;;;;25.80;93.80;;;;;;5104178;28;19913;-46
2021/05/20 10:00:55;;;;;;;;;;;25.80;93.80;;;;;;5104341;28;19904;-49
2021/05/20 10:03:23;;;;;;;;;;;25.80;93.70;;;;;;5104287;28;19912;-47
2021/05/20 10:05:52;;;;;;;;;;;25.80;93.70;;;;;;5103987;28;19905;-52
2021/05/20 10:08:19;;;;;;;;;;;25.80;93.80;;;;;;5104064;28;19939;-46
2021/05/20 10:10:47;;;;;;;;;;;25.80;93.80;;;;;;5104014;28;19979;-50
2021/05/20 10:13:18;;;;;;;;;;;25.80;93.80;;;;;;5104098;28;19955;-49
2021/05/20 10:15:44;;;;;;;;;;;25.80;93.80;;;;;;5104008;28;20220;-45
2021/05/20 10:18:12;;;;;;;;;;;25.80;93.80;;;;;;5104217;28;19987;-46
2021/05/20 10:20:39;;;;;;;;;;;25.80;93.80;;;;;;5104004;28;19971;-45
2021/05/20 10:23:07;;;;;;;;;;;25.80;93.80;;;;;;5103918;28;19918;-47
2021/05/20 10:25:34;;;;;;;;;;;25.80;93.80;;;;;;5103890;28;19927;-48
2021/05/20 10:28:00;;;;;;;;;;;25.80;93.80;;;;;;5103825;28;19991;-51
2021/05/20 10:30:26;;;;;;;;;;;25.80;93.80;;;;;;5103655;28;19961;-45
2021/05/20 10:32:59;;;;;;;;;;;25.80;93.80;;;;;;5103942;28;19946;-48
2021/05/20 10:35:43;;;;;;;;;;;25.80;93.80;;;;;;5103815;28;19904;-47
2021/05/20 10:38:16;;;;;;;;;;;25.80;93.80;;;;;;5106119;28;19954;-50
2021/05/20 10:40:42;;;;;;;;;;;25.80;93.80;;;;;;5107421;28;19961;-48
2021/05/20 10:43:09;;;;;;;;;;;25.80;93.80;;;;;;5107363;28;19912;-46
2021/05/20 10:45:35;;;;;;;;;;;25.80;93.70;;;;;;5107061;28;20248;-47
2021/05/20 10:48:05;;;;;;;;;;;25.80;93.90;;;;;;5089246;28;20138;-46
2021/05/20 10:50:50;;;;;;;;;;;25.70;93.80;;;;;;5107163;28;19908;-45
2021/05/20 10:53:34;;;;;;;;;;;25.80;93.90;;;;;;5107150;28;20124;-47
2021/05/20 10:56:00;;;;;;;;;;;25.80;93.90;;;;;;5107306;28;19908;-50
2021/05/20 10:58:30;;;;;;;;;;;25.80;94.00;;;;;;5107140;28;19958;-51
2021/05/20 11:00:56;;;;;;;;;;;25.80;94.10;;;;;;5107208;28;20204;-49
2021/05/20 11:03:41;;;;;;;;;;;25.80;94.10;;;;;;5107461;28;19919;-48
2021/05/20 11:06:07;;;;;;;;;;;25.80;94.10;;;;;;5107026;28;20208;-47
2021/05/20 11:08:36;;;;;;;;;;;25.80;94.20;;;;;;5106900;28;20197;-48
2021/05/20 11:11:03;;;;;;;;;;;25.80;94.30;;;;;;5106704;28;19912;-55
2021/05/20 11:13:46;;;;;;;;;;;25.80;94.40;;;;;;5107246;28;19927;-49
2021/05/20 11:16:17;;;;;;;;;;;25.80;94.30;;;;;;5106882;28;19942;-52
2021/05/20 11:18:44;;;;;;;;;;;25.80;94.50;;;;;;5106997;28;20100;-49
2021/05/20 11:21:10;;;;;;;;;;;25.80;94.50;;;;;;5088880;28;19936;-49
2021/05/20 11:23:37;;;;;;;;;;;25.80;94.40;;;;;;5106845;28;19950;-50
2021/05/20 11:26:14;;;;;;;;;;;25.80;94.40;;;;;;5107241;28;19935;-47
2021/05/20 11:28:43;;;;;;;;;;;25.80;94.50;;;;;;5106428;28;19912;-53
2021/05/20 11:31:10;;;;;;;;;;;25.80;94.50;;;;;;5106199;28;19923;-49
2021/05/20 11:34:04;;;;;;;;;;;25.80;94.50;;;;;;5106652;28;19974;-51
2021/05/20 11:36:24;;;;;;;;;;;25.90;94.60;;;;;;5106161;28;20251;-51
2021/05/20 11:38:57;;;;;;;;;;;25.90;94.70;;;;;;5106667;28;19908;-55
2021/05/20 11:41:24;;;;;;;;;;;25.90;94.60;;;;;;5106185;28;19967;-52
2021/05/20 11:44:01;;;;;;;;;;;25.90;94.40;;;;;;5106376;28;19907;-49
2021/05/20 11:46:27;;;;;;;;;;;25.90;94.30;;;;;;5106185;28;19950;-47
2021/05/20 11:48:56;;;;;;;;;;;25.90;94.20;;;;;;5106414;28;19908;-54
2021/05/20 11:51:41;;;;;;;;;;;25.90;94.20;;;;;;5106278;28;19916;-48
2021/05/20 11:54:11;;;;;;;;;;;25.90;94.10;;;;;;5106103;28;19939;-52
2021/05/20 11:56:47;;;;;;;;;;;25.90;94.20;;;;;;5106126;28;20193;-49
2021/05/20 11:59:13;;;;;;;;;;;25.90;94.00;;;;;;5106775;28;19998;-52
2021/05/20 12:01:41;;;;;;;;;;;25.90;93.90;;;;;;5106097;28;19916;-57
2021/05/20 12:04:07;;;;;;;;;;;25.90;93.90;;;;;;5106168;28;19908;-52
2021/05/20 12:06:35;;;;;;;;;;;26.00;93.90;;;;;;5106006;28;19971;-48
2021/05/20 12:09:05;;;;;;;;;;;26.00;93.70;;;;;;5106268;28;19908;-55
2021/05/20 12:11:31;;;;;;;;;;;26.00;93.70;;;;;;5105774;28;19946;-48
2021/05/20 12:13:57;;;;;;;;;;;26.00;93.60;;;;;;5105930;28;19908;-49
2021/05/20 12:16:27;;;;;;;;;;;26.00;93.50;;;;;;5105512;28;19966;-51
2021/05/20 12:18:53;;;;;;;;;;;26.00;93.40;;;;;;5105777;28;19908;-48
2021/05/20 12:21:19;;;;;;;;;;;26.00;93.30;;;;;;5105426;28;20097;-51
2021/05/20 12:23:58;;;;;;;;;;;26.00;93.60;;;;;;5105654;28;20103;-51
2021/05/20 12:26:25;;;;;;;;;;;26.00;93.30;;;;;;5105405;28;19908;-48
2021/05/20 12:28:51;;;;;;;;;;;26.00;93.40;;;;;;5105423;28;19939;-56
2021/05/20 12:31:19;;;;;;;;;;;26.00;93.40;;;;;;5105066;28;19959;-47
2021/05/20 12:33:48;;;;;;;;;;;26.00;93.40;;;;;;5105369;28;19919;-51
2021/05/20 12:36:28;;;;;;;;;;;26.00;93.30;;;;;;5105084;28;19912;-52
2021/05/20 12:38:54;;;;;;;;;;;26.00;93.40;;;;;;5105529;28;19912;-51
2021/05/20 12:41:21;;;;;;;;;;;26.00;93.30;;;;;;5105186;28;19904;-51
2021/05/20 12:43:47;;;;;;;;;;;26.00;93.20;;;;;;5105180;28;20188;-55
2021/05/20 12:46:15;;;;;;;;;;;26.00;93.30;;;;;;5105051;28;19908;-50
2021/05/20 12:48:46;;;;;;;;;;;26.10;93.40;;;;;;5104906;28;19912;-48
2021/05/20 12:51:15;;;;;;;;;;;26.10;93.30;;;;;;5105070;28;19909;-52
2021/05/20 12:53:43;;;;;;;;;;;26.10;93.40;;;;;;5105305;28;19912;-53
2021/05/20 12:56:30;;;;;;;;;;;26.10;93.30;;;;;;5104835;28;19910;-50
2021/05/20 12:59:01;;;;;;;;;;;26.10;93.20;;;;;;5105192;28;19912;-51
2021/05/20 13:01:38;;;;;;;;;;;26.10;93.20;;;;;;5104260;28;19943;-54
2021/05/20 13:04:07;;;;;;;;;;;26.10;93.20;;;;;;5105059;28;19957;-49
2021/05/20 13:06:33;;;;;;;;;;;26.10;93.30;;;;;;5104817;28;19927;-52
2021/05/20 13:09:07;;;;;;;;;;;26.10;93.30;;;;;;5104969;28;19912;-49
2021/05/20 13:11:36;;;;;;;;;;;26.10;93.40;;;;;;5104622;28;19954;-50
2021/05/20 13:14:24;;;;;;;;;;;26.10;93.60;;;;;;5104525;28;19912;-55
2021/05/20 13:17:01;;;;;;;;;;;26.10;93.70;;;;;;5104832;28;20248;-50
2021/05/20 13:22:22;;;;;;;;;;;26.10;93.80;;;;;;5104610;28;19943;-50
2021/05/20 13:24:59;;;;;;;;;;;26.00;93.70;;;;;;5088001;28;19996;-49
2021/05/20 13:27:26;;;;;;;;;;;26.10;93.80;;;;;;5104355;28;19911;-48
2021/05/20 13:29:55;;;;;;;;;;;26.00;93.90;;;;;;5104207;28;19920;-49
2021/05/20 13:34:51;;;;;;;;;;;26.00;93.90;;;;;;5104900;28;19916;-51
2021/05/20 13:37:17;;;;;;;;;;;26.00;93.80;;;;;;5104395;28;20207;-54
2021/05/20 13:39:44;;;;;;;;;;;26.00;93.80;;;;;;5104856;28;19951;-51
2021/05/20 13:42:10;;;;;;;;;;;26.10;93.80;;;;;;5104314;28;20196;-49
2021/05/20 13:44:45;;;;;;;;;;;26.10;93.90;;;;;;5104676;28;19982;-48
2021/05/20 13:47:12;;;;;;;;;;;26.10;93.90;;;;;;5104297;28;19911;-49
2021/05/20 13:49:41;;;;;;;;;;;26.10;93.90;;;;;;5105132;28;19955;-50
2021/05/20 13:52:09;;;;;;;;;;;26.10;94.00;;;;;;5104285;28;19911;-47
2021/05/20 13:54:35;;;;;;;;;;;26.10;94.00;;;;;;5104869;28;19970;-48
2021/05/20 13:57:02;;;;;;;;;;;26.10;94.10;;;;;;5104235;28;19904;-47
2021/05/20 13:59:29;;;;;;;;;;;26.10;94.40;;;;;;5103975;28;19920;-48
2021/05/20 14:01:57;;;;;;;;;;;26.10;94.30;;;;;;5104450;28;20077;-49
2021/05/20 14:04:25;;;;;;;;;;;26.10;94.40;;;;;;5104601;28;19912;-51
2021/05/20 14:06:52;;;;;;;;;;;26.10;94.40;;;;;;5104117;28;19903;-48
2021/05/20 14:09:18;;;;;;;;;;;26.20;94.30;;;;;;5104034;28;19912;-47
2021/05/20 14:11:44;;;;;;;;;;;26.20;94.40;;;;;;5104349;28;19904;-52
2021/05/20 14:14:10;;;;;;;;;;;26.20;94.60;;;;;;5108106;28;19912;-51
2021/05/20 14:16:37;;;;;;;;;;;26.20;94.50;;;;;;5107910;28;19904;-46
2021/05/20 14:19:03;;;;;;;;;;;26.30;94.60;;;;;;5108316;28;19912;-54
2021/05/20 14:21:31;;;;;;;;;;;26.30;94.60;;;;;;5107791;28;20218;-50
2021/05/20 14:23:57;;;;;;;;;;;26.30;94.50;;;;;;5108063;28;19912;-54
2021/05/20 14:26:23;;;;;;;;;;;26.30;94.40;;;;;;5108175;28;19935;-49
2021/05/20 14:28:50;;;;;;;;;;;26.30;94.30;;;;;;5107929;28;19997;-57
2021/05/20 14:31:16;;;;;;;;;;;26.30;94.30;;;;;;5107507;28;19916;-48
2021/05/20 14:33:43;;;;;;;;;;;26.30;94.20;;;;;;5108204;28;19919;-50
2021/05/20 14:36:09;;;;;;;;;;;26.30;94.30;;;;;;5107314;28;19946;-48